BAW34 EGKK-EGPH
Flight info
| Callsign | BAW34 |
|---|---|
| Flight time | 1h 3m |
| Altitude | 38000 |
| Route | LAM L10 BPK UN601 RIBEL DCT INPIP |
| Aircraft | A320/M-SDE3FGHIRWY/LB1 |
Departure
| Time | 2026-05-06 21:52 |
|---|---|
| Airport | London Gatwick Airport (EGKK) |
Arrival
| Time | 2026-05-06 22:56 |
|---|---|
| Airport | Edinburgh Airport (EGPH) |
| Time | Latitude | Longitude | Altitude | Speed | Heading |
|---|---|---|---|---|---|
| 2026-05-06 21:18 | 51.15494 | -0.16906 | 210 ft | 0 kts | 349° |
| 2026-05-06 21:33 | 51.15472 | -0.16897 | 217 ft | 4 kts | 334° |
| 2026-05-06 21:33 | 51.15452 | -0.16874 | 215 ft | 4 kts | 298° |
| 2026-05-06 21:34 | 51.15448 | -0.16844 | 214 ft | 1 kts | 258° |
| 2026-05-06 21:34 | 51.15449 | -0.16838 | 213 ft | 0 kts | 258° |
| 2026-05-06 21:37 | 51.15448 | -0.16839 | 213 ft | 1 kts | 258° |
| 2026-05-06 21:38 | 51.15445 | -0.16867 | 214 ft | 4 kts | 258° |
| 2026-05-06 21:38 | 51.15439 | -0.16910 | 205 ft | 2 kts | 258° |
| 2026-05-06 21:38 | 51.15434 | -0.16946 | 208 ft | 5 kts | 258° |
| 2026-05-06 21:38 | 51.15424 | -0.17015 | 206 ft | 8 kts | 256° |
| 2026-05-06 21:39 | 51.15413 | -0.17089 | 213 ft | 4 kts | 256° |
| 2026-05-06 21:39 | 51.15402 | -0.17152 | 216 ft | 7 kts | 246° |
| 2026-05-06 21:39 | 51.15396 | -0.17166 | 214 ft | 3 kts | 237° |
| 2026-05-06 21:39 | 51.15384 | -0.17212 | 210 ft | 6 kts | 256° |
| 2026-05-06 21:40 | 51.15369 | -0.17291 | 214 ft | 9 kts | 252° |
| 2026-05-06 21:40 | 51.15327 | -0.17374 | 212 ft | 11 kts | 206° |
| 2026-05-06 21:40 | 51.15295 | -0.17489 | 205 ft | 12 kts | 263° |
| 2026-05-06 21:40 | 51.15278 | -0.17621 | 205 ft | 13 kts | 258° |
| 2026-05-06 21:41 | 51.15256 | -0.17776 | 210 ft | 15 kts | 257° |
| 2026-05-06 21:41 | 51.15235 | -0.17929 | 205 ft | 11 kts | 258° |
| 2026-05-06 21:41 | 51.15234 | -0.17937 | 208 ft | 0 kts | 257° |
| 2026-05-06 21:41 | 51.15234 | -0.17938 | 208 ft | 1 kts | 257° |
| 2026-05-06 21:42 | 51.15230 | -0.17965 | 216 ft | 4 kts | 257° |
| 2026-05-06 21:42 | 51.15222 | -0.18025 | 205 ft | 7 kts | 257° |
| 2026-05-06 21:42 | 51.15209 | -0.18118 | 205 ft | 10 kts | 257° |
| 2026-05-06 21:42 | 51.15192 | -0.18239 | 208 ft | 13 kts | 258° |
| 2026-05-06 21:43 | 51.15178 | -0.18393 | 211 ft | 14 kts | 257° |
| 2026-05-06 21:43 | 51.15162 | -0.18506 | 213 ft | 11 kts | 257° |
| 2026-05-06 21:43 | 51.15143 | -0.18646 | 210 ft | 15 kts | 257° |
| 2026-05-06 21:43 | 51.15118 | -0.18822 | 205 ft | 18 kts | 257° |
| 2026-05-06 21:44 | 51.15090 | -0.19032 | 207 ft | 21 kts | 258° |
| 2026-05-06 21:44 | 51.15057 | -0.19274 | 214 ft | 24 kts | 257° |
| 2026-05-06 21:44 | 51.15020 | -0.19547 | 209 ft | 27 kts | 258° |
| 2026-05-06 21:44 | 51.14977 | -0.19851 | 212 ft | 30 kts | 257° |
| 2026-05-06 21:45 | 51.14936 | -0.20151 | 208 ft | 21 kts | 258° |
| 2026-05-06 21:45 | 51.14904 | -0.20378 | 205 ft | 19 kts | 257° |
| 2026-05-06 21:45 | 51.14873 | -0.20605 | 208 ft | 23 kts | 257° |
| 2026-05-06 21:45 | 51.14837 | -0.20861 | 208 ft | 24 kts | 257° |
| 2026-05-06 21:46 | 51.14806 | -0.21089 | 207 ft | 13 kts | 258° |
| 2026-05-06 21:46 | 51.14789 | -0.21167 | 217 ft | 0 kts | 244° |
| 2026-05-06 21:46 | 51.14789 | -0.21169 | 217 ft | 1 kts | 244° |
| 2026-05-06 21:46 | 51.14782 | -0.21196 | 209 ft | 4 kts | 252° |
| 2026-05-06 21:47 | 51.14773 | -0.21258 | 205 ft | 7 kts | 257° |
| 2026-05-06 21:47 | 51.14760 | -0.21353 | 205 ft | 10 kts | 258° |
| 2026-05-06 21:47 | 51.14739 | -0.21411 | 211 ft | 5 kts | 195° |
| 2026-05-06 21:47 | 51.14726 | -0.21407 | 205 ft | 0 kts | 172° |
| 2026-05-06 21:48 | 51.14721 | -0.21405 | 205 ft | 0 kts | 170° |
| 2026-05-06 21:48 | 51.14719 | -0.21405 | 205 ft | 1 kts | 170° |
| 2026-05-06 21:48 | 51.14699 | -0.21400 | 207 ft | 4 kts | 171° |
| 2026-05-06 21:49 | 51.14665 | -0.21371 | 214 ft | 7 kts | 131° |
| 2026-05-06 21:49 | 51.14633 | -0.21333 | 208 ft | 3 kts | 173° |
| 2026-05-06 21:49 | 51.14630 | -0.21332 | 208 ft | 0 kts | 172° |
| 2026-05-06 21:49 | 51.14629 | -0.21332 | 207 ft | 1 kts | 172° |
| 2026-05-06 21:50 | 51.14611 | -0.21328 | 207 ft | 4 kts | 170° |
| 2026-05-06 21:50 | 51.14575 | -0.21314 | 209 ft | 7 kts | 164° |
| 2026-05-06 21:50 | 51.14536 | -0.21267 | 205 ft | 8 kts | 130° |
| 2026-05-06 21:50 | 51.14520 | -0.21176 | 209 ft | 4 kts | 78° |
| 2026-05-06 21:51 | 51.14525 | -0.21144 | 217 ft | 0 kts | 77° |
| 2026-05-06 21:51 | 51.14535 | -0.21078 | 207 ft | 29 kts | 77° |
| 2026-05-06 21:51 | 51.14633 | -0.20358 | 210 ft | 101 kts | 77° |
| 2026-05-06 21:51 | 51.14823 | -0.18976 | 211 ft | 152 kts | 78° |
| 2026-05-06 21:52 | 51.15063 | -0.17194 | 599 ft | 171 kts | 78° |
| 2026-05-06 21:52 | 51.15315 | -0.15357 | 1456 ft | 169 kts | 75° |
| 2026-05-06 21:52 | 51.15573 | -0.13495 | 1968 ft | 181 kts | 75° |
| 2026-05-06 21:52 | 51.15760 | -0.12148 | 2195 ft | 196 kts | 76° |
| 2026-05-06 21:53 | 51.16097 | -0.09744 | 2722 ft | 218 kts | 76° |
| 2026-05-06 21:53 | 51.16489 | -0.07265 | 3261 ft | 242 kts | 67° |
| 2026-05-06 21:53 | 51.17431 | -0.04950 | 3971 ft | 256 kts | 51° |
| 2026-05-06 21:53 | 51.18558 | -0.02658 | 4751 ft | 274 kts | 51° |
| 2026-05-06 21:54 | 51.19787 | -0.00137 | 5272 ft | 293 kts | 52° |
| 2026-05-06 21:54 | 51.20988 | 0.02345 | 6763 ft | 277 kts | 52° |
| 2026-05-06 21:54 | 51.22157 | 0.04771 | 7834 ft | 277 kts | 52° |
| 2026-05-06 21:54 | 51.23342 | 0.07237 | 8783 ft | 282 kts | 51° |
| 2026-05-06 21:55 | 51.24514 | 0.09761 | 9704 ft | 287 kts | 56° |
| 2026-05-06 21:55 | 51.25655 | 0.12431 | 10346 ft | 299 kts | 44° |
| 2026-05-06 21:55 | 51.27467 | 0.14207 | 10633 ft | 319 kts | 14° |
| 2026-05-06 21:55 | 51.29695 | 0.14280 | 11139 ft | 328 kts | 345° |
| 2026-05-06 21:56 | 51.31833 | 0.12938 | 11871 ft | 333 kts | 336° |
| 2026-05-06 21:56 | 51.33996 | 0.11549 | 12712 ft | 336 kts | 339° |
| 2026-05-06 21:56 | 51.36207 | 0.10269 | 13514 ft | 340 kts | 340° |
| 2026-05-06 21:56 | 51.38437 | 0.09059 | 14239 ft | 343 kts | 341° |
| 2026-05-06 21:57 | 51.40720 | 0.07859 | 14924 ft | 347 kts | 341° |
| 2026-05-06 21:57 | 51.43021 | 0.06661 | 15598 ft | 351 kts | 341° |
| 2026-05-06 21:57 | 51.45353 | 0.05434 | 16270 ft | 355 kts | 340° |
| 2026-05-06 21:57 | 51.47706 | 0.04180 | 16935 ft | 358 kts | 340° |
| 2026-05-06 21:58 | 51.50088 | 0.02894 | 17607 ft | 362 kts | 340° |
| 2026-05-06 21:58 | 51.52487 | 0.01591 | 18262 ft | 366 kts | 340° |
| 2026-05-06 21:58 | 51.54909 | 0.00274 | 18851 ft | 370 kts | 340° |
| 2026-05-06 21:58 | 51.57358 | -0.01061 | 19453 ft | 373 kts | 340° |
| 2026-05-06 21:59 | 51.59831 | -0.02410 | 20069 ft | 377 kts | 340° |
| 2026-05-06 21:59 | 51.62320 | -0.03770 | 20677 ft | 380 kts | 340° |
| 2026-05-06 21:59 | 51.64841 | -0.05143 | 21253 ft | 383 kts | 340° |
| 2026-05-06 21:59 | 51.67375 | -0.06520 | 21811 ft | 386 kts | 340° |
| 2026-05-06 22:00 | 51.69897 | -0.07892 | 22358 ft | 389 kts | 340° |
| 2026-05-06 22:00 | 51.72467 | -0.09292 | 22909 ft | 392 kts | 340° |
| 2026-05-06 22:00 | 51.75048 | -0.10860 | 23451 ft | 395 kts | 333° |
| 2026-05-06 22:00 | 51.77450 | -0.13004 | 23924 ft | 397 kts | 328° |
| 2026-05-06 22:01 | 51.78558 | -0.14062 | 24136 ft | 398 kts | 328° |
| 2026-05-06 22:01 | 51.80952 | -0.16352 | 24596 ft | 401 kts | 328° |
| 2026-05-06 22:01 | 51.83356 | -0.18645 | 25042 ft | 403 kts | 328° |
| 2026-05-06 22:01 | 51.85784 | -0.20960 | 25500 ft | 405 kts | 328° |
| 2026-05-06 22:02 | 51.88229 | -0.23287 | 25965 ft | 408 kts | 328° |
| 2026-05-06 22:02 | 51.90679 | -0.25622 | 26408 ft | 410 kts | 328° |
| 2026-05-06 22:02 | 51.93147 | -0.27981 | 26844 ft | 413 kts | 328° |
| 2026-05-06 22:02 | 51.95625 | -0.30358 | 27274 ft | 415 kts | 328° |
| 2026-05-06 22:03 | 51.98116 | -0.32751 | 27707 ft | 418 kts | 327° |
| 2026-05-06 22:03 | 52.00626 | -0.35166 | 28133 ft | 420 kts | 327° |
| 2026-05-06 22:03 | 52.03147 | -0.37594 | 28557 ft | 423 kts | 327° |
| 2026-05-06 22:03 | 52.05687 | -0.40044 | 29007 ft | 425 kts | 327° |
| 2026-05-06 22:04 | 52.08230 | -0.42497 | 29458 ft | 427 kts | 327° |
| 2026-05-06 22:04 | 52.10759 | -0.44937 | 29879 ft | 429 kts | 327° |
| 2026-05-06 22:04 | 52.13339 | -0.47426 | 30262 ft | 432 kts | 327° |
| 2026-05-06 22:04 | 52.15933 | -0.49934 | 30612 ft | 434 kts | 327° |
| 2026-05-06 22:05 | 52.18537 | -0.52460 | 30966 ft | 437 kts | 327° |
| 2026-05-06 22:05 | 52.21152 | -0.55007 | 31313 ft | 439 kts | 327° |
| 2026-05-06 22:05 | 52.23780 | -0.57571 | 31738 ft | 440 kts | 327° |
| 2026-05-06 22:05 | 52.26408 | -0.60133 | 32248 ft | 439 kts | 327° |
| 2026-05-06 22:06 | 52.29025 | -0.62683 | 32767 ft | 438 kts | 328° |
| 2026-05-06 22:06 | 52.31638 | -0.65234 | 33301 ft | 436 kts | 328° |
| 2026-05-06 22:06 | 52.34242 | -0.67778 | 33831 ft | 435 kts | 328° |
| 2026-05-06 22:06 | 52.36837 | -0.70319 | 34298 ft | 434 kts | 328° |
| 2026-05-06 22:07 | 52.39426 | -0.72856 | 34712 ft | 434 kts | 328° |
| 2026-05-06 22:07 | 52.42021 | -0.75402 | 35081 ft | 435 kts | 328° |
| 2026-05-06 22:07 | 52.44615 | -0.77951 | 35443 ft | 435 kts | 328° |
| 2026-05-06 22:07 | 52.47209 | -0.80503 | 35805 ft | 435 kts | 328° |
| 2026-05-06 22:08 | 52.48932 | -0.82203 | 36041 ft | 436 kts | 328° |
| 2026-05-06 22:08 | 52.51526 | -0.84770 | 36388 ft | 436 kts | 328° |
| 2026-05-06 22:08 | 52.54126 | -0.87344 | 36743 ft | 436 kts | 328° |
| 2026-05-06 22:08 | 52.56728 | -0.89924 | 37088 ft | 437 kts | 328° |
| 2026-05-06 22:09 | 52.59333 | -0.92508 | 37419 ft | 437 kts | 328° |
| 2026-05-06 22:09 | 52.61937 | -0.95094 | 37726 ft | 438 kts | 328° |
| 2026-05-06 22:09 | 52.64546 | -0.97688 | 37982 ft | 440 kts | 328° |
| 2026-05-06 22:09 | 52.67183 | -1.00311 | 38031 ft | 446 kts | 328° |
| 2026-05-06 22:10 | 52.72584 | -1.05706 | 38029 ft | 461 kts | 328° |
| 2026-05-06 22:10 | 52.78152 | -1.11279 | 38270 ft | 471 kts | 328° |
| 2026-05-06 22:11 | 52.80943 | -1.14072 | 38875 ft | 465 kts | 328° |
| 2026-05-06 22:11 | 52.83689 | -1.16820 | 39384 ft | 458 kts | 328° |
| 2026-05-06 22:11 | 52.86396 | -1.19529 | 39891 ft | 452 kts | 328° |
| 2026-05-06 22:11 | 52.89083 | -1.22228 | 39870 ft | 449 kts | 327° |
| 2026-05-06 22:12 | 52.91746 | -1.24921 | 39522 ft | 446 kts | 327° |
| 2026-05-06 22:12 | 52.94374 | -1.27589 | 39188 ft | 442 kts | 327° |
| 2026-05-06 22:12 | 52.96985 | -1.30241 | 38791 ft | 440 kts | 327° |
| 2026-05-06 22:12 | 52.99596 | -1.32886 | 38260 ft | 439 kts | 328° |
| 2026-05-06 22:13 | 53.02182 | -1.35507 | 38093 ft | 433 kts | 328° |
| 2026-05-06 22:13 | 53.04755 | -1.38120 | 38073 ft | 434 kts | 328° |
| 2026-05-06 22:13 | 53.09925 | -1.43380 | 38072 ft | 436 kts | 328° |
| 2026-05-06 22:14 | 53.15106 | -1.48666 | 38076 ft | 436 kts | 327° |
| 2026-05-06 22:14 | 53.20284 | -1.53970 | 38071 ft | 436 kts | 328° |
| 2026-05-06 22:15 | 53.25448 | -1.59283 | 38089 ft | 436 kts | 327° |
| 2026-05-06 22:15 | 53.30608 | -1.64606 | 38095 ft | 436 kts | 327° |
| 2026-05-06 22:16 | 53.35765 | -1.69932 | 38093 ft | 436 kts | 327° |
| 2026-05-06 22:16 | 53.40921 | -1.75271 | 38092 ft | 435 kts | 327° |
| 2026-05-06 22:17 | 53.46067 | -1.80610 | 38094 ft | 435 kts | 327° |
| 2026-05-06 22:17 | 53.51212 | -1.85968 | 38094 ft | 435 kts | 327° |
| 2026-05-06 22:18 | 53.56345 | -1.91337 | 38087 ft | 435 kts | 327° |
| 2026-05-06 22:18 | 53.61483 | -1.96717 | 38085 ft | 435 kts | 327° |
| 2026-05-06 22:19 | 53.66613 | -2.02114 | 38086 ft | 435 kts | 327° |
| 2026-05-06 22:19 | 53.71744 | -2.07530 | 38090 ft | 435 kts | 327° |
| 2026-05-06 22:20 | 53.77120 | -2.12203 | 38089 ft | 436 kts | 337° |
| 2026-05-06 22:20 | 53.82744 | -2.16019 | 38089 ft | 436 kts | 337° |
| 2026-05-06 22:21 | 53.88333 | -2.19833 | 38087 ft | 435 kts | 336° |
| 2026-05-06 22:21 | 53.93984 | -2.23701 | 38085 ft | 435 kts | 336° |
| 2026-05-06 22:22 | 53.99558 | -2.27544 | 38093 ft | 435 kts | 336° |
| 2026-05-06 22:22 | 54.05162 | -2.31418 | 38096 ft | 434 kts | 336° |
| 2026-05-06 22:23 | 54.10764 | -2.35280 | 38088 ft | 434 kts | 336° |
| 2026-05-06 22:23 | 54.16352 | -2.39150 | 38086 ft | 434 kts | 336° |
| 2026-05-06 22:24 | 54.21947 | -2.43054 | 38080 ft | 433 kts | 336° |
| 2026-05-06 22:24 | 54.24740 | -2.45000 | 37933 ft | 433 kts | 336° |
| 2026-05-06 22:24 | 54.27521 | -2.46938 | 37659 ft | 431 kts | 336° |
| 2026-05-06 22:25 | 54.30296 | -2.48871 | 37387 ft | 429 kts | 336° |
| 2026-05-06 22:25 | 54.33053 | -2.50798 | 37112 ft | 428 kts | 337° |
| 2026-05-06 22:25 | 54.35801 | -2.52724 | 36860 ft | 427 kts | 337° |
| 2026-05-06 22:25 | 54.38547 | -2.54652 | 36592 ft | 425 kts | 337° |
| 2026-05-06 22:26 | 54.41277 | -2.56571 | 36302 ft | 424 kts | 337° |
| 2026-05-06 22:26 | 54.44012 | -2.58494 | 35598 ft | 426 kts | 338° |
| 2026-05-06 22:26 | 54.46769 | -2.60431 | 34831 ft | 428 kts | 338° |
| 2026-05-06 22:26 | 54.49524 | -2.62374 | 34184 ft | 427 kts | 338° |
| 2026-05-06 22:27 | 54.52226 | -2.64287 | 33534 ft | 424 kts | 338° |
| 2026-05-06 22:27 | 54.54950 | -2.66218 | 32750 ft | 424 kts | 338° |
| 2026-05-06 22:27 | 54.57678 | -2.68153 | 32028 ft | 422 kts | 338° |
| 2026-05-06 22:27 | 54.60374 | -2.70064 | 31513 ft | 417 kts | 338° |
| 2026-05-06 22:28 | 54.63041 | -2.71957 | 30990 ft | 412 kts | 338° |
| 2026-05-06 22:28 | 54.65681 | -2.73835 | 30457 ft | 408 kts | 337° |
| 2026-05-06 22:28 | 54.68287 | -2.75689 | 29900 ft | 403 kts | 337° |
| 2026-05-06 22:28 | 54.70864 | -2.77525 | 29360 ft | 398 kts | 337° |
| 2026-05-06 22:29 | 54.73407 | -2.79344 | 28860 ft | 393 kts | 336° |
| 2026-05-06 22:29 | 54.75917 | -2.81145 | 28342 ft | 388 kts | 335° |
| 2026-05-06 22:29 | 54.78393 | -2.82927 | 27842 ft | 383 kts | 335° |
| 2026-05-06 22:29 | 54.80835 | -2.84684 | 27357 ft | 378 kts | 335° |
| 2026-05-06 22:30 | 54.83254 | -2.86426 | 26879 ft | 374 kts | 335° |
| 2026-05-06 22:30 | 54.85649 | -2.88151 | 26419 ft | 371 kts | 335° |
| 2026-05-06 22:30 | 54.88020 | -2.89861 | 25964 ft | 367 kts | 335° |
| 2026-05-06 22:30 | 54.90382 | -2.91570 | 25440 ft | 370 kts | 335° |
| 2026-05-06 22:31 | 54.92760 | -2.93289 | 24924 ft | 370 kts | 335° |
| 2026-05-06 22:31 | 54.95135 | -2.95005 | 24402 ft | 369 kts | 334° |
| 2026-05-06 22:31 | 54.97502 | -2.96717 | 23900 ft | 368 kts | 334° |
| 2026-05-06 22:31 | 54.99865 | -2.98431 | 23321 ft | 368 kts | 334° |
| 2026-05-06 22:32 | 55.02216 | -3.00144 | 22800 ft | 365 kts | 334° |
| 2026-05-06 22:32 | 55.04543 | -3.01841 | 22294 ft | 361 kts | 334° |
| 2026-05-06 22:32 | 55.06854 | -3.03523 | 21786 ft | 358 kts | 334° |
| 2026-05-06 22:32 | 55.09150 | -3.05196 | 21289 ft | 356 kts | 334° |
| 2026-05-06 22:33 | 55.11429 | -3.06858 | 20794 ft | 354 kts | 334° |
| 2026-05-06 22:33 | 55.13700 | -3.08515 | 20296 ft | 353 kts | 334° |
| 2026-05-06 22:33 | 55.15958 | -3.10168 | 19723 ft | 353 kts | 334° |
| 2026-05-06 22:33 | 55.18251 | -3.11849 | 18853 ft | 362 kts | 334° |
| 2026-05-06 22:34 | 55.20593 | -3.13569 | 17970 ft | 368 kts | 334° |
| 2026-05-06 22:34 | 55.22967 | -3.15314 | 17299 ft | 368 kts | 334° |
| 2026-05-06 22:34 | 55.25306 | -3.17034 | 16902 ft | 359 kts | 334° |
| 2026-05-06 22:34 | 55.27536 | -3.18670 | 16761 ft | 345 kts | 334° |
| 2026-05-06 22:35 | 55.29818 | -3.19882 | 16625 ft | 335 kts | 347° |
| 2026-05-06 22:35 | 55.32120 | -3.20071 | 16440 ft | 329 kts | 1° |
| 2026-05-06 22:35 | 55.34373 | -3.19736 | 15840 ft | 323 kts | 2° |
| 2026-05-06 22:35 | 55.36601 | -3.19389 | 15136 ft | 320 kts | 2° |
| 2026-05-06 22:36 | 55.38777 | -3.19048 | 14477 ft | 317 kts | 2° |
| 2026-05-06 22:36 | 55.40964 | -3.18703 | 13814 ft | 314 kts | 2° |
| 2026-05-06 22:36 | 55.43132 | -3.18362 | 13122 ft | 310 kts | 2° |
| 2026-05-06 22:36 | 55.45265 | -3.18025 | 12574 ft | 305 kts | 2° |
| 2026-05-06 22:37 | 55.47371 | -3.17689 | 12055 ft | 303 kts | 3° |
| 2026-05-06 22:37 | 55.49461 | -3.17357 | 11547 ft | 301 kts | 3° |
| 2026-05-06 22:37 | 55.51546 | -3.17028 | 11030 ft | 303 kts | 3° |
| 2026-05-06 22:37 | 55.53646 | -3.16700 | 10655 ft | 302 kts | 3° |
| 2026-05-06 22:38 | 55.55748 | -3.16372 | 10156 ft | 306 kts | 3° |
| 2026-05-06 22:38 | 55.57845 | -3.16044 | 9916 ft | 300 kts | 4° |
| 2026-05-06 22:38 | 55.59915 | -3.15716 | 9498 ft | 296 kts | 3° |
| 2026-05-06 22:38 | 55.61963 | -3.15394 | 8954 ft | 295 kts | 4° |
| 2026-05-06 22:39 | 55.63994 | -3.15076 | 8418 ft | 291 kts | 4° |
| 2026-05-06 22:39 | 55.66003 | -3.14759 | 7906 ft | 288 kts | 4° |
| 2026-05-06 22:39 | 55.67980 | -3.14445 | 7631 ft | 278 kts | 4° |
| 2026-05-06 22:39 | 55.69856 | -3.14149 | 7415 ft | 266 kts | 4° |
| 2026-05-06 22:40 | 55.71662 | -3.13865 | 7069 ft | 261 kts | 4° |
| 2026-05-06 22:40 | 55.73445 | -3.13577 | 6805 ft | 254 kts | 6° |
| 2026-05-06 22:40 | 55.75085 | -3.12456 | 6264 ft | 257 kts | 42° |
| 2026-05-06 22:40 | 55.76032 | -3.09932 | 6180 ft | 238 kts | 72° |
| 2026-05-06 22:41 | 55.75992 | -3.04574 | 6187 ft | 215 kts | 115° |
| 2026-05-06 22:41 | 55.75181 | -3.02397 | 6191 ft | 211 kts | 139° |
| 2026-05-06 22:41 | 55.73882 | -3.00880 | 6198 ft | 237 kts | 161° |
| 2026-05-06 22:42 | 55.72248 | -3.00434 | 6196 ft | 242 kts | 183° |
| 2026-05-06 22:42 | 55.70557 | -3.00606 | 6192 ft | 244 kts | 185° |
| 2026-05-06 22:42 | 55.68864 | -3.00862 | 6194 ft | 243 kts | 186° |
| 2026-05-06 22:42 | 55.67177 | -3.01139 | 6194 ft | 244 kts | 186° |
| 2026-05-06 22:43 | 55.65508 | -3.01413 | 6194 ft | 244 kts | 186° |
| 2026-05-06 22:43 | 55.63846 | -3.02127 | 6195 ft | 243 kts | 207° |
| 2026-05-06 22:43 | 55.62558 | -3.03970 | 6198 ft | 244 kts | 232° |
| 2026-05-06 22:43 | 55.61833 | -3.06659 | 6198 ft | 245 kts | 258° |
| 2026-05-06 22:44 | 55.61842 | -3.09652 | 6195 ft | 246 kts | 283° |
| 2026-05-06 22:44 | 55.62604 | -3.12346 | 6199 ft | 248 kts | 310° |
| 2026-05-06 22:44 | 55.63980 | -3.14172 | 6195 ft | 254 kts | 337° |
| 2026-05-06 22:44 | 55.65730 | -3.14734 | 6193 ft | 260 kts | 2° |
| 2026-05-06 22:45 | 55.67549 | -3.14520 | 6191 ft | 263 kts | 4° |
| 2026-05-06 22:45 | 55.69375 | -3.14246 | 6189 ft | 263 kts | 5° |
| 2026-05-06 22:45 | 55.71198 | -3.13955 | 6190 ft | 263 kts | 5° |
| 2026-05-06 22:45 | 55.73020 | -3.13598 | 6049 ft | 266 kts | 12° |
| 2026-05-06 22:46 | 55.74729 | -3.12455 | 5896 ft | 258 kts | 22° |
| 2026-05-06 22:46 | 55.76344 | -3.11246 | 5830 ft | 247 kts | 22° |
| 2026-05-06 22:46 | 55.77916 | -3.10083 | 5779 ft | 245 kts | 22° |
| 2026-05-06 22:46 | 55.79483 | -3.08926 | 5718 ft | 242 kts | 22° |
| 2026-05-06 22:47 | 55.81000 | -3.07801 | 5656 ft | 230 kts | 22° |
| 2026-05-06 22:47 | 55.82485 | -3.06700 | 5612 ft | 239 kts | 22° |
| 2026-05-06 22:47 | 55.84037 | -3.05548 | 5568 ft | 244 kts | 22° |
| 2026-05-06 22:47 | 55.85644 | -3.04615 | 5509 ft | 243 kts | 10° |
| 2026-05-06 22:48 | 55.87307 | -3.04091 | 5448 ft | 242 kts | 8° |
| 2026-05-06 22:48 | 55.88966 | -3.03561 | 5344 ft | 240 kts | 9° |
| 2026-05-06 22:48 | 55.90616 | -3.03030 | 4994 ft | 241 kts | 9° |
| 2026-05-06 22:48 | 55.92265 | -3.02500 | 4675 ft | 240 kts | 9° |
| 2026-05-06 22:49 | 55.93888 | -3.01984 | 4343 ft | 240 kts | 7° |
| 2026-05-06 22:49 | 55.95566 | -3.01941 | 4006 ft | 238 kts | 351° |
| 2026-05-06 22:49 | 55.97182 | -3.02322 | 3672 ft | 238 kts | 351° |
| 2026-05-06 22:49 | 55.98820 | -3.02701 | 3344 ft | 237 kts | 351° |
| 2026-05-06 22:50 | 56.00455 | -3.03077 | 3051 ft | 236 kts | 350° |
| 2026-05-06 22:50 | 56.01992 | -3.04029 | 2999 ft | 234 kts | 324° |
| 2026-05-06 22:50 | 56.03117 | -3.06011 | 2998 ft | 218 kts | 298° |
| 2026-05-06 22:50 | 56.03647 | -3.08362 | 2998 ft | 195 kts | 276° |
| 2026-05-06 22:51 | 56.03667 | -3.10616 | 3014 ft | 167 kts | 257° |
| 2026-05-06 22:51 | 56.03335 | -3.12462 | 3000 ft | 149 kts | 239° |
| 2026-05-06 22:51 | 56.02837 | -3.13977 | 2951 ft | 135 kts | 236° |
| 2026-05-06 22:51 | 56.02365 | -3.15385 | 2796 ft | 130 kts | 235° |
| 2026-05-06 22:52 | 56.01906 | -3.16753 | 2626 ft | 128 kts | 234° |
| 2026-05-06 22:52 | 56.01454 | -3.18100 | 2467 ft | 126 kts | 234° |
| 2026-05-06 22:52 | 56.01003 | -3.19442 | 2297 ft | 126 kts | 234° |
| 2026-05-06 22:52 | 56.00552 | -3.20782 | 2130 ft | 126 kts | 234° |
| 2026-05-06 22:53 | 56.00099 | -3.22129 | 1951 ft | 126 kts | 234° |
| 2026-05-06 22:53 | 55.99649 | -3.23468 | 1779 ft | 125 kts | 233° |
| 2026-05-06 22:53 | 55.99200 | -3.24802 | 1598 ft | 126 kts | 233° |
| 2026-05-06 22:53 | 55.98753 | -3.26126 | 1427 ft | 127 kts | 233° |
| 2026-05-06 22:54 | 55.98298 | -3.27477 | 1252 ft | 127 kts | 233° |
| 2026-05-06 22:54 | 55.97840 | -3.28833 | 1058 ft | 128 kts | 234° |
| 2026-05-06 22:54 | 55.97378 | -3.30205 | 874 ft | 129 kts | 235° |
| 2026-05-06 22:54 | 55.97071 | -3.31114 | 756 ft | 129 kts | 235° |
| 2026-05-06 22:55 | 55.96608 | -3.32485 | 583 ft | 129 kts | 234° |
| 2026-05-06 22:55 | 55.96146 | -3.33851 | 402 ft | 127 kts | 234° |
| 2026-05-06 22:55 | 55.95691 | -3.35197 | 234 ft | 127 kts | 236° |
| 2026-05-06 22:55 | 55.95235 | -3.36537 | 107 ft | 122 kts | 237° |
| 2026-05-06 22:56 | 55.94923 | -3.37470 | 108 ft | 45 kts | 238° |
| 2026-05-06 22:56 | 55.94811 | -3.37791 | 114 ft | 32 kts | 238° |
| 2026-05-06 22:56 | 55.94709 | -3.38095 | 115 ft | 24 kts | 239° |
| 2026-05-06 22:56 | 55.94618 | -3.38364 | 112 ft | 27 kts | 239° |
| 2026-05-06 22:57 | 55.94518 | -3.38657 | 115 ft | 28 kts | 239° |
| 2026-05-06 22:57 | 55.94436 | -3.38906 | 116 ft | 21 kts | 239° |
| 2026-05-06 22:57 | 55.94347 | -3.38934 | 117 ft | 14 kts | 150° |
| 2026-05-06 22:57 | 55.94302 | -3.38881 | 118 ft | 4 kts | 146° |
| 2026-05-06 22:58 | 55.94277 | -3.38831 | 118 ft | 8 kts | 110° |
| 2026-05-06 22:58 | 55.94306 | -3.38718 | 117 ft | 12 kts | 54° |
| 2026-05-06 22:58 | 55.94350 | -3.38593 | 115 ft | 8 kts | 59° |
| 2026-05-06 22:58 | 55.94392 | -3.38468 | 113 ft | 15 kts | 59° |
| 2026-05-06 22:59 | 55.94454 | -3.38280 | 112 ft | 20 kts | 61° |
| 2026-05-06 22:59 | 55.94511 | -3.38116 | 111 ft | 12 kts | 59° |
| 2026-05-06 22:59 | 55.94551 | -3.37997 | 112 ft | 9 kts | 59° |
| 2026-05-06 22:59 | 55.94590 | -3.37884 | 112 ft | 13 kts | 58° |
| 2026-05-06 23:00 | 55.94637 | -3.37746 | 113 ft | 11 kts | 58° |
| 2026-05-06 23:00 | 55.94684 | -3.37609 | 112 ft | 16 kts | 59° |
| 2026-05-06 23:00 | 55.94741 | -3.37438 | 110 ft | 13 kts | 59° |
| 2026-05-06 23:00 | 55.94799 | -3.37267 | 105 ft | 19 kts | 58° |
| 2026-05-06 23:01 | 55.94859 | -3.37090 | 104 ft | 17 kts | 58° |
| 2026-05-06 23:01 | 55.94914 | -3.36927 | 104 ft | 0 kts | 59° |
| 2026-05-06 23:02 | 55.94916 | -3.36920 | 103 ft | 0 kts | 59° |